createdAt,value
2019-02-26T00:01:14.448Z,49.48
2019-02-26T00:04:03.187Z,49.66
2019-02-26T00:06:54.135Z,49.68
2019-02-26T00:09:45.929Z,49.64
2019-02-26T00:12:35.692Z,49.53
2019-02-26T00:15:25.660Z,49.70
2019-02-26T00:18:16.852Z,49.81
2019-02-26T00:21:07.800Z,49.76
2019-02-26T00:23:58.072Z,49.85
2019-02-26T00:26:48.087Z,49.81
2019-02-26T00:29:38.182Z,49.96
2019-02-26T00:32:29.821Z,49.99
2019-02-26T00:35:21.221Z,50.02
2019-02-26T00:38:13.325Z,50.17
2019-02-26T00:41:03.932Z,50.32
2019-02-26T00:43:55.278Z,50.39
2019-02-26T00:46:45.861Z,50.54
2019-02-26T00:49:35.780Z,50.72
2019-02-26T00:52:25.239Z,50.72
2019-02-26T00:55:15.243Z,50.75
2019-02-26T00:58:05.934Z,50.69
2019-02-26T01:00:56.314Z,50.73
2019-02-26T01:03:47.125Z,50.80
2019-02-26T01:06:37.870Z,50.81
2019-02-26T01:09:29.362Z,50.86
2019-02-26T01:12:19.213Z,50.87
2019-02-26T01:15:12.272Z,50.86
2019-02-26T01:18:03.203Z,50.90
2019-02-26T01:20:54.805Z,51.07
2019-02-26T01:23:45.723Z,51.11
2019-02-26T01:26:35.626Z,51.31
2019-02-26T01:29:26.047Z,51.61
2019-02-26T01:32:18.090Z,51.75
2019-02-26T01:35:10.685Z,51.52
2019-02-26T01:38:00.589Z,51.58
2019-02-26T01:40:51.892Z,52.09
2019-02-26T01:43:41.696Z,51.75
2019-02-26T01:46:34.414Z,52.13
2019-02-26T01:49:26.627Z,52.52
2019-02-26T01:52:17.461Z,52.49
2019-02-26T01:55:10.394Z,52.20
2019-02-26T01:58:00.063Z,52.10
2019-02-26T02:00:49.750Z,52.24
2019-02-26T02:03:39.318Z,52.03
2019-02-26T02:06:30.373Z,51.92
2019-02-26T02:09:22.755Z,51.93
2019-02-26T02:12:12.841Z,52.06
2019-02-26T02:15:02.805Z,52.22
2019-02-26T02:17:52.351Z,52.33
2019-02-26T02:20:42.232Z,52.31
2019-02-26T02:23:32.039Z,52.24
2019-02-26T02:26:21.782Z,52.35
2019-02-26T02:29:12.840Z,52.30
2019-02-26T02:32:05.083Z,52.34
2019-02-26T02:34:58.278Z,52.60
2019-02-26T02:37:46.550Z,52.54
2019-02-26T02:40:39.902Z,52.62
2019-02-26T02:43:28.332Z,52.57
2019-02-26T02:46:17.798Z,52.60
2019-02-26T02:49:09.686Z,52.95
2019-02-26T02:52:01.469Z,53.30
2019-02-26T02:54:51.880Z,53.42
2019-02-26T02:57:42.050Z,53.33
2019-02-26T03:00:34.342Z,53.29
2019-02-26T03:03:23.188Z,53.51
2019-02-26T03:06:12.911Z,53.45
2019-02-26T03:09:03.682Z,53.38
2019-02-26T03:11:55.404Z,53.39
2019-02-26T03:14:45.191Z,53.31
2019-02-26T03:17:35.028Z,53.41
2019-02-26T03:20:28.746Z,53.32
2019-02-26T03:23:20.014Z,53.41
2019-02-26T03:26:12.574Z,53.46
2019-02-26T03:29:00.560Z,53.38
2019-02-26T03:31:54.792Z,53.50
2019-02-26T03:34:41.977Z,53.60
2019-02-26T03:37:34.174Z,53.61
2019-02-26T03:40:24.929Z,54.35
2019-02-26T03:43:16.214Z,54.07
2019-02-26T03:46:06.206Z,53.84
2019-02-26T03:48:56.268Z,53.81
2019-02-26T03:51:46.495Z,53.74
2019-02-26T03:54:39.838Z,53.78
2019-02-26T03:57:28.085Z,53.82
2019-02-26T04:00:19.916Z,53.92
2019-02-26T04:03:12.447Z,54.14
2019-02-26T04:06:03.193Z,53.94
2019-02-26T04:08:53.776Z,53.92
2019-02-26T04:11:47.424Z,54.01
2019-02-26T04:14:36.067Z,54.08
2019-02-26T04:17:28.138Z,54.01
2019-02-26T04:20:17.657Z,54.01
2019-02-26T04:23:08.962Z,54.11
2019-02-26T04:26:44.382Z,54.31
2019-02-26T04:30:16.251Z,54.35
2019-02-26T04:33:49.422Z,54.24
2019-02-26T04:37:38.316Z,54.45
2019-02-26T04:41:19.544Z,54.53
2019-02-26T04:44:50.051Z,54.56
2019-02-26T04:47:40.567Z,54.58
2019-02-26T04:50:32.387Z,54.69
2019-02-26T04:53:23.041Z,54.79
2019-02-26T04:56:15.013Z,54.73
2019-02-26T04:59:06.245Z,54.74
2019-02-26T05:01:57.405Z,54.78
2019-02-26T05:04:47.283Z,54.69
2019-02-26T05:07:38.499Z,54.67
2019-02-26T05:10:31.819Z,54.96
2019-02-26T05:13:22.010Z,55.15
2019-02-26T05:16:12.256Z,55.02
2019-02-26T05:19:01.953Z,54.94
2019-02-26T05:21:53.513Z,54.99
2019-02-26T05:24:47.099Z,55.13
2019-02-26T05:27:36.328Z,55.46
2019-02-26T05:30:27.303Z,55.35
2019-02-26T05:33:18.471Z,55.34
2019-02-26T05:36:11.555Z,55.28
2019-02-26T05:39:02.303Z,55.29
2019-02-26T05:41:55.562Z,55.24
2019-02-26T05:44:45.365Z,55.20
2019-02-26T05:47:35.419Z,55.26
2019-02-26T05:50:25.082Z,55.26
2019-02-26T05:53:15.153Z,55.24
2019-02-26T05:56:05.405Z,55.30
2019-02-26T05:58:55.282Z,55.36
2019-02-26T06:01:46.562Z,55.34
2019-02-26T06:04:38.391Z,55.27
2019-02-26T06:07:31.323Z,55.34
2019-02-26T06:10:21.563Z,55.38
2019-02-26T06:13:13.581Z,55.73
2019-02-26T06:16:05.372Z,55.66
2019-02-26T06:18:55.203Z,55.82
2019-02-26T06:21:47.413Z,55.65
2019-02-26T06:24:38.080Z,55.61
2019-02-26T06:27:27.911Z,55.74
2019-02-26T06:30:18.694Z,55.90
2019-02-26T06:33:09.713Z,55.85
2019-02-26T06:36:01.752Z,55.70
2019-02-26T06:38:53.915Z,55.70
2019-02-26T06:41:44.368Z,55.70
2019-02-26T06:44:36.868Z,55.64
2019-02-26T06:47:29.287Z,55.57
2019-02-26T06:50:19.059Z,55.86
2019-02-26T06:53:10.989Z,55.94
2019-02-26T06:56:00.774Z,55.76
2019-02-26T06:58:50.878Z,55.68
2019-02-26T07:01:41.985Z,55.58
2019-02-26T07:04:31.709Z,55.57
2019-02-26T07:07:21.534Z,55.57
2019-02-26T07:10:16.306Z,55.51
2019-02-26T07:13:07.437Z,55.40
2019-02-26T07:15:57.343Z,55.47
2019-02-26T07:18:47.595Z,55.65
2019-02-26T07:21:38.010Z,55.16
2019-02-26T07:24:29.331Z,54.19
2019-02-26T07:27:18.987Z,53.69
2019-02-26T07:30:09.686Z,53.38
2019-02-26T07:32:59.771Z,53.38
2019-02-26T07:35:49.419Z,53.41
2019-02-26T07:38:41.605Z,53.47
2019-02-26T07:41:31.036Z,53.63
2019-02-26T07:44:23.436Z,53.78
2019-02-26T07:47:12.488Z,53.55
2019-02-26T07:50:04.634Z,52.95
2019-02-26T07:52:56.905Z,52.22
2019-02-26T07:55:46.916Z,51.41
2019-02-26T07:58:39.077Z,50.35
2019-02-26T08:01:28.526Z,48.96
2019-02-26T08:04:18.721Z,47.70
2019-02-26T08:07:08.504Z,47.06
2019-02-26T08:09:58.580Z,47.17
2019-02-26T08:12:49.392Z,47.31
2019-02-26T08:15:39.872Z,47.41
2019-02-26T08:18:29.701Z,47.61
2019-02-26T08:21:21.739Z,47.97
2019-02-26T08:24:13.039Z,48.29
2019-02-26T08:27:03.395Z,48.56
2019-02-26T08:29:56.973Z,48.50
2019-02-26T08:32:51.151Z,47.50
2019-02-26T08:35:38.394Z,46.29
2019-02-26T08:38:30.065Z,43.52
2019-02-26T08:41:19.478Z,43.34
2019-02-26T08:44:09.523Z,42.81
2019-02-26T08:46:59.547Z,43.14
2019-02-26T08:49:49.604Z,43.32
2019-02-26T08:52:39.582Z,43.34
2019-02-26T08:55:29.347Z,43.33
2019-02-26T08:58:19.108Z,42.60
2019-02-26T09:01:08.971Z,42.50
2019-02-26T09:04:00.689Z,42.07
2019-02-26T09:06:51.910Z,41.78
2019-02-26T09:09:41.746Z,42.03
2019-02-26T09:12:31.843Z,41.44
2019-02-26T09:15:22.212Z,41.06
2019-02-26T09:18:12.255Z,40.56
2019-02-26T09:21:01.298Z,40.62
2019-02-26T09:23:54.938Z,40.20
2019-02-26T09:26:43.181Z,40.49
2019-02-26T09:29:34.344Z,40.24
2019-02-26T09:32:24.376Z,38.78
2019-02-26T09:35:16.880Z,38.34
2019-02-26T09:38:07.758Z,37.25
2019-02-26T09:40:57.557Z,35.85
2019-02-26T09:43:48.131Z,36.11
2019-02-26T09:46:39.356Z,34.60
2019-02-26T09:49:31.456Z,33.58
2019-02-26T09:52:25.178Z,33.17
2019-02-26T09:55:14.492Z,32.42
2019-02-26T09:58:04.440Z,33.40
2019-02-26T10:00:54.240Z,32.76
2019-02-26T10:03:44.025Z,33.32
2019-02-26T10:06:34.951Z,33.12
2019-02-26T10:09:24.742Z,31.41
2019-02-26T10:12:15.674Z,30.90
2019-02-26T10:15:06.338Z,30.84
2019-02-26T10:17:58.790Z,29.97
2019-02-26T10:20:49.928Z,29.38
2019-02-26T10:23:39.535Z,28.15
2019-02-26T10:26:30.764Z,26.35
2019-02-26T10:29:20.730Z,26.92
2019-02-26T10:32:11.774Z,26.43
2019-02-26T10:35:01.857Z,25.47
2019-02-26T10:37:53.888Z,25.90
2019-02-26T10:40:53.546Z,25.28
2019-02-26T10:43:35.173Z,25.67
2019-02-26T10:46:24.982Z,25.98
2019-02-26T10:49:15.020Z,25.91
2019-02-26T10:52:04.940Z,26.42
2019-02-26T10:54:55.663Z,26.17
2019-02-26T10:57:47.805Z,26.05
2019-02-26T11:00:38.140Z,26.41
2019-02-26T11:03:29.865Z,24.96
2019-02-26T11:06:21.250Z,24.14
2019-02-26T11:09:18.007Z,23.46
2019-02-26T11:12:08.315Z,23.06
2019-02-26T11:14:58.562Z,22.68
2019-02-26T11:17:51.336Z,21.00
2019-02-26T11:20:41.026Z,20.63
2019-02-26T11:23:33.398Z,20.93
2019-02-26T11:26:22.225Z,19.66
2019-02-26T11:29:12.050Z,19.84
2019-02-26T11:32:04.231Z,20.46
2019-02-26T11:34:55.118Z,20.57
2019-02-26T11:37:47.200Z,19.75
2019-02-26T11:40:37.003Z,19.92
2019-02-26T11:43:28.938Z,20.01
2019-02-26T11:46:20.006Z,20.41
2019-02-26T11:49:11.878Z,20.35
2019-02-26T11:52:04.411Z,20.78
2019-02-26T11:54:53.252Z,21.07
2019-02-26T11:57:45.682Z,19.54
2019-02-26T12:00:45.502Z,20.56
2019-02-26T12:03:36.373Z,19.85
2019-02-26T12:06:25.672Z,19.93
2019-02-26T12:09:16.206Z,20.20
2019-02-26T12:12:08.669Z,19.58
2019-02-26T12:14:57.872Z,19.79
2019-02-26T12:17:51.758Z,18.98
2019-02-26T12:20:43.449Z,19.49
2019-02-26T12:23:34.480Z,19.30
2019-02-26T12:26:25.556Z,19.37
2019-02-26T12:29:18.657Z,19.19
2019-02-26T12:32:08.819Z,19.00
2019-02-26T12:34:58.995Z,19.02
2019-02-26T12:37:50.117Z,19.70
2019-02-26T12:40:44.677Z,18.72
2019-02-26T12:43:36.108Z,18.95
2019-02-26T12:46:27.534Z,18.95
2019-02-26T12:49:18.440Z,19.26
2019-02-26T12:52:09.444Z,19.93
2019-02-26T12:55:00.812Z,20.58
2019-02-26T12:57:52.799Z,21.01
2019-02-26T13:00:42.709Z,21.39
2019-02-26T13:03:38.107Z,21.95
2019-02-26T13:06:25.180Z,22.07
2019-02-26T13:09:15.263Z,21.88
2019-02-26T13:12:05.025Z,22.41
2019-02-26T13:15:02.308Z,22.81
2019-02-26T13:17:48.877Z,22.93
2019-02-26T13:20:38.038Z,23.09
2019-02-26T13:23:28.226Z,23.28
2019-02-26T13:26:19.743Z,22.59
2019-02-26T13:29:09.536Z,23.06
2019-02-26T13:32:00.206Z,23.41
2019-02-26T13:34:52.502Z,23.60
2019-02-26T13:37:42.481Z,23.76
2019-02-26T13:40:38.190Z,23.67
2019-02-26T13:43:23.968Z,23.03
2019-02-26T13:46:14.172Z,22.25
2019-02-26T13:49:03.949Z,22.00
2019-02-26T13:51:53.779Z,21.47
2019-02-26T13:54:43.646Z,22.33
2019-02-26T13:57:33.698Z,22.58
2019-02-26T14:00:26.750Z,23.31
2019-02-26T14:03:15.413Z,23.79
2019-02-26T14:06:05.714Z,24.35
2019-02-26T14:08:55.750Z,24.48
2019-02-26T14:11:47.012Z,24.95
2019-02-26T14:14:36.579Z,24.91
2019-02-26T14:17:26.311Z,25.02
2019-02-26T14:20:15.919Z,25.16
2019-02-26T14:23:05.523Z,25.23
2019-02-26T14:25:55.519Z,25.38
2019-02-26T14:28:45.809Z,25.86
2019-02-26T14:31:35.611Z,26.31
2019-02-26T14:34:25.822Z,26.51
2019-02-26T14:37:15.576Z,26.77
2019-02-26T14:40:07.207Z,27.01
2019-02-26T14:42:57.068Z,27.16
2019-02-26T14:45:46.947Z,27.32
2019-02-26T14:48:36.979Z,27.46
2019-02-26T14:51:28.150Z,27.61
2019-02-26T14:54:18.298Z,27.79
2019-02-26T14:57:08.193Z,27.97
2019-02-26T14:59:57.986Z,28.14
2019-02-26T15:02:47.789Z,28.19
2019-02-26T15:05:37.574Z,28.27
2019-02-26T15:08:27.624Z,28.41
2019-02-26T15:11:17.262Z,28.46
2019-02-26T15:14:07.317Z,28.58
2019-02-26T15:16:57.577Z,28.66
2019-02-26T15:19:50.453Z,28.72
2019-02-26T15:22:38.716Z,28.86
2019-02-26T15:25:29.049Z,28.87
2019-02-26T15:28:19.556Z,28.95
2019-02-26T15:31:09.679Z,28.91
2019-02-26T15:34:00.754Z,28.93
2019-02-26T15:36:50.791Z,29.03
2019-02-26T15:39:41.869Z,28.94
2019-02-26T15:42:32.071Z,28.50
2019-02-26T15:45:23.931Z,28.50
2019-02-26T15:48:13.859Z,28.59
2019-02-26T15:51:03.416Z,28.34
2019-02-26T15:53:55.670Z,28.56
2019-02-26T15:56:45.258Z,28.80
2019-02-26T15:59:35.613Z,28.48
2019-02-26T16:02:28.312Z,28.59
2019-02-26T16:05:17.737Z,28.61
2019-02-26T16:08:07.473Z,28.79
2019-02-26T16:10:58.558Z,29.00
2019-02-26T16:13:49.623Z,29.18
2019-02-26T16:16:40.044Z,29.29
2019-02-26T16:19:29.683Z,29.46
2019-02-26T16:22:19.251Z,29.57
2019-02-26T16:25:09.544Z,29.69
2019-02-26T16:27:59.392Z,29.78
2019-02-26T16:30:49.588Z,29.95
2019-02-26T16:33:39.270Z,30.12
2019-02-26T16:36:31.600Z,30.31
2019-02-26T16:39:22.572Z,30.46
2019-02-26T16:42:12.362Z,30.57
2019-02-26T16:45:02.092Z,30.79
2019-02-26T16:47:53.188Z,30.95
2019-02-26T16:50:45.155Z,31.06
2019-02-26T16:53:34.498Z,31.29
2019-02-26T16:56:24.366Z,31.51
2019-02-26T16:59:15.159Z,31.66
2019-02-26T17:02:05.434Z,31.81
2019-02-26T17:04:55.137Z,31.76
2019-02-26T17:07:45.598Z,31.85
2019-02-26T17:10:35.457Z,32.16
2019-02-26T17:13:25.236Z,32.58
2019-02-26T17:16:15.201Z,32.74
2019-02-26T17:19:05.089Z,33.14
2019-02-26T17:21:54.555Z,33.19
2019-02-26T17:24:44.536Z,33.21
2019-02-26T17:27:36.581Z,33.29
2019-02-26T17:30:26.165Z,33.32
2019-02-26T17:33:15.777Z,33.54
2019-02-26T17:36:05.210Z,33.82
2019-02-26T17:38:55.057Z,33.88
2019-02-26T17:41:45.331Z,34.04
2019-02-26T17:44:34.744Z,34.17
2019-02-26T17:47:24.715Z,34.47
2019-02-26T17:50:19.484Z,34.71
2019-02-26T17:53:09.517Z,34.92
2019-02-26T17:55:59.720Z,35.20
2019-02-26T17:58:49.869Z,35.42
2019-02-26T18:01:40.056Z,35.67
2019-02-26T18:04:29.951Z,35.82
2019-02-26T18:07:21.735Z,36.00
2019-02-26T18:10:13.519Z,36.25
2019-02-26T18:13:03.341Z,36.36
2019-02-26T18:15:56.117Z,36.54
2019-02-26T18:18:43.926Z,36.70
2019-02-26T18:21:34.015Z,36.90
2019-02-26T18:24:24.053Z,37.11
2019-02-26T18:27:14.127Z,37.32
2019-02-26T18:30:05.426Z,37.51
2019-02-26T18:32:57.366Z,37.73
2019-02-26T18:35:46.515Z,37.78
2019-02-26T18:38:36.395Z,37.90
2019-02-26T18:41:26.184Z,37.95
2019-02-26T18:44:17.839Z,38.10
2019-02-26T18:47:07.903Z,38.28
2019-02-26T18:49:57.351Z,38.46
2019-02-26T18:52:47.443Z,38.80
2019-02-26T18:55:36.975Z,38.92
2019-02-26T18:58:27.368Z,39.01
2019-02-26T19:01:17.087Z,39.24
2019-02-26T19:04:07.130Z,39.53
2019-02-26T19:06:59.471Z,39.61
2019-02-26T19:09:48.854Z,39.71
2019-02-26T19:12:39.844Z,39.67
2019-02-26T19:15:29.986Z,39.84
2019-02-26T19:18:20.150Z,40.02
2019-02-26T19:21:10.157Z,40.19
2019-02-26T19:24:04.408Z,40.34
2019-02-26T19:26:51.266Z,40.37
2019-02-26T19:29:40.769Z,40.56
2019-02-26T19:32:30.419Z,40.61
2019-02-26T19:35:20.695Z,40.67
2019-02-26T19:38:10.794Z,40.76
2019-02-26T19:41:05.084Z,41.08
2019-02-26T19:43:54.444Z,41.43
2019-02-26T19:46:44.899Z,41.42
2019-02-26T19:49:36.834Z,41.53
2019-02-26T19:52:25.987Z,41.59
2019-02-26T19:55:23.613Z,41.75
2019-02-26T19:58:12.859Z,42.00
2019-02-26T20:01:02.741Z,42.01
2019-02-26T20:03:52.444Z,42.08
2019-02-26T20:06:42.719Z,42.40
2019-02-26T20:09:32.860Z,42.50
2019-02-26T20:12:22.962Z,42.60
2019-02-26T20:15:13.438Z,42.70
2019-02-26T20:18:02.888Z,42.73
2019-02-26T20:20:52.342Z,42.83
2019-02-26T20:23:42.483Z,42.97
2019-02-26T20:26:32.759Z,43.13
2019-02-26T20:29:22.898Z,43.32
2019-02-26T20:32:12.927Z,43.26
2019-02-26T20:35:02.760Z,43.27
2019-02-26T20:37:54.332Z,43.40
2019-02-26T20:40:48.727Z,43.49
2019-02-26T20:43:37.327Z,43.56
2019-02-26T20:46:27.714Z,43.76
2019-02-26T20:49:17.742Z,43.87
2019-02-26T20:52:08.416Z,44.06
2019-02-26T20:54:58.791Z,44.18
2019-02-26T20:57:48.708Z,44.28
2019-02-26T21:00:42.539Z,44.27
2019-02-26T21:03:31.380Z,44.34
2019-02-26T21:06:21.584Z,44.40
2019-02-26T21:09:12.106Z,44.47
2019-02-26T21:12:03.109Z,44.57
2019-02-26T21:14:52.902Z,44.88
2019-02-26T21:17:42.752Z,45.11
2019-02-26T21:20:32.581Z,45.25
2019-02-26T21:23:22.807Z,45.31
2019-02-26T21:26:12.564Z,45.40
2019-02-26T21:29:05.697Z,45.70
2019-02-26T21:31:54.122Z,45.72
2019-02-26T21:34:47.315Z,45.89
2019-02-26T21:37:36.079Z,45.84
2019-02-26T21:40:26.055Z,45.97
2019-02-26T21:43:15.715Z,46.16
2019-02-26T21:46:05.731Z,46.27
2019-02-26T21:48:55.750Z,46.32
2019-02-26T21:51:45.995Z,46.37
2019-02-26T21:54:36.793Z,46.48
2019-02-26T21:57:26.828Z,46.67
2019-02-26T22:00:17.579Z,46.72
2019-02-26T22:03:07.777Z,46.75
2019-02-26T22:06:04.981Z,46.78
2019-02-26T22:08:49.646Z,46.87
2019-02-26T22:11:39.681Z,46.97
2019-02-26T22:14:29.461Z,46.96
2019-02-26T22:17:19.571Z,47.14
2019-02-26T22:20:21.644Z,47.22
2019-02-26T22:23:02.865Z,47.26
2019-02-26T22:25:54.055Z,47.36
2019-02-26T22:28:43.959Z,47.42
2019-02-26T22:31:34.597Z,47.75
2019-02-26T22:34:24.618Z,47.87
2019-02-26T22:37:14.423Z,47.91
2019-02-26T22:40:04.731Z,47.92
2019-02-26T22:42:54.605Z,47.99
2019-02-26T22:45:44.662Z,48.09
2019-02-26T22:48:34.847Z,48.06
2019-02-26T22:51:24.507Z,48.18
2019-02-26T22:54:14.362Z,48.20
2019-02-26T22:57:04.311Z,48.15
2019-02-26T22:59:54.085Z,48.18
2019-02-26T23:02:44.119Z,48.39
2019-02-26T23:05:34.117Z,48.48
2019-02-26T23:08:23.981Z,48.65
2019-02-26T23:11:16.062Z,48.65
2019-02-26T23:14:08.012Z,48.60
2019-02-26T23:16:58.699Z,48.76
2019-02-26T23:19:49.605Z,48.98
2019-02-26T23:22:39.788Z,49.17
2019-02-26T23:25:30.846Z,49.20
2019-02-26T23:28:21.949Z,49.58
2019-02-26T23:31:12.679Z,49.73
2019-02-26T23:34:02.766Z,49.61
2019-02-26T23:36:52.971Z,49.45
2019-02-26T23:39:43.234Z,49.56
2019-02-26T23:42:33.478Z,49.60
2019-02-26T23:45:24.223Z,49.61
2019-02-26T23:48:14.401Z,49.57
2019-02-26T23:51:04.191Z,49.70
2019-02-26T23:53:53.934Z,49.69
2019-02-26T23:56:43.794Z,49.71
2019-02-26T23:59:34.794Z,49.81
